sensor_id;sensor_type;location;lat;lon;timestamp;temperature;humidity
5286;DHT22;2665;53.112;7.358;2023-03-23T00:01:27;10.90;1.00
5286;DHT22;2665;53.112;7.358;2023-03-23T00:03:56;10.90;1.00
5286;DHT22;2665;53.112;7.358;2023-03-23T00:06:24;10.90;1.00
5286;DHT22;2665;53.112;7.358;2023-03-23T00:08:52;10.90;1.00
5286;DHT22;2665;53.112;7.358;2023-03-23T00:11:23;10.90;1.00
5286;DHT22;2665;53.112;7.358;2023-03-23T00:13:52;10.90;1.00
5286;DHT22;2665;53.112;7.358;2023-03-23T00:16:20;11.00;1.00
5286;DHT22;2665;53.112;7.358;2023-03-23T00:18:47;11.00;1.00
5286;DHT22;2665;53.112;7.358;2023-03-23T00:21:14;11.00;1.00
5286;DHT22;2665;53.112;7.358;2023-03-23T00:23:40;11.00;1.00
5286;DHT22;2665;53.112;7.358;2023-03-23T00:26:06;11.00;1.00
5286;DHT22;2665;53.112;7.358;2023-03-23T00:28:31;11.10;1.00
5286;DHT22;2665;53.112;7.358;2023-03-23T00:30:59;11.10;1.00
5286;DHT22;2665;53.112;7.358;2023-03-23T00:33:27;11.10;1.00
5286;DHT22;2665;53.112;7.358;2023-03-23T00:35:54;11.10;1.00
5286;DHT22;2665;53.112;7.358;2023-03-23T00:38:24;11.10;1.00
5286;DHT22;2665;53.112;7.358;2023-03-23T00:40:51;11.10;1.00
5286;DHT22;2665;53.112;7.358;2023-03-23T00:43:18;11.00;1.00
5286;DHT22;2665;53.112;7.358;2023-03-23T00:45:45;11.00;1.00
5286;DHT22;2665;53.112;7.358;2023-03-23T00:48:27;11.00;1.00
5286;DHT22;2665;53.112;7.358;2023-03-23T00:50:54;11.00;1.00
5286;DHT22;2665;53.112;7.358;2023-03-23T00:53:19;10.90;1.00
5286;DHT22;2665;53.112;7.358;2023-03-23T00:55:46;10.80;99.90
5286;DHT22;2665;53.112;7.358;2023-03-23T00:58:13;10.70;1.00
5286;DHT22;2665;53.112;7.358;2023-03-23T01:00:39;10.70;1.00
5286;DHT22;2665;53.112;7.358;2023-03-23T01:03:06;10.80;1.00
5286;DHT22;2665;53.112;7.358;2023-03-23T01:05:36;10.90;1.00
5286;DHT22;2665;53.112;7.358;2023-03-23T01:08:02;10.90;1.00
5286;DHT22;2665;53.112;7.358;2023-03-23T01:10:28;11.00;1.00
5286;DHT22;2665;53.112;7.358;2023-03-23T01:12:54;11.00;1.00
5286;DHT22;2665;53.112;7.358;2023-03-23T01:15:20;11.00;1.00
5286;DHT22;2665;53.112;7.358;2023-03-23T01:17:46;11.00;1.00
5286;DHT22;2665;53.112;7.358;2023-03-23T01:20:13;11.10;1.00
5286;DHT22;2665;53.112;7.358;2023-03-23T01:22:41;11.10;99.90
5286;DHT22;2665;53.112;7.358;2023-03-23T01:25:08;11.10;99.90
5286;DHT22;2665;53.112;7.358;2023-03-23T01:27:34;11.10;99.90
5286;DHT22;2665;53.112;7.358;2023-03-23T01:30:00;11.10;99.90
5286;DHT22;2665;53.112;7.358;2023-03-23T01:32:26;11.10;99.90
5286;DHT22;2665;53.112;7.358;2023-03-23T01:34:51;11.10;99.90
5286;DHT22;2665;53.112;7.358;2023-03-23T01:37:17;11.10;75.40
5286;DHT22;2665;53.112;7.358;2023-03-23T01:39:43;11.10;1.00
5286;DHT22;2665;53.112;7.358;2023-03-23T01:42:09;11.10;1.00
5286;DHT22;2665;53.112;7.358;2023-03-23T01:47:01;11.10;99.90
5286;DHT22;2665;53.112;7.358;2023-03-23T01:49:34;11.10;99.90
5286;DHT22;2665;53.112;7.358;2023-03-23T01:52:09;11.10;99.90
5286;DHT22;2665;53.112;7.358;2023-03-23T01:54:36;11.10;1.00
5286;DHT22;2665;53.112;7.358;2023-03-23T01:57:29;11.10;1.00
5286;DHT22;2665;53.112;7.358;2023-03-23T01:59:58;11.10;99.90
5286;DHT22;2665;53.112;7.358;2023-03-23T02:02:26;11.10;1.00
5286;DHT22;2665;53.112;7.358;2023-03-23T02:04:57;11.10;3.80
5286;DHT22;2665;53.112;7.358;2023-03-23T02:07:24;11.10;99.90
5286;DHT22;2665;53.112;7.358;2023-03-23T02:09:51;11.10;99.90
5286;DHT22;2665;53.112;7.358;2023-03-23T02:12:16;11.10;24.50
5286;DHT22;2665;53.112;7.358;2023-03-23T02:14:42;11.10;99.90
5286;DHT22;2665;53.112;7.358;2023-03-23T02:17:25;11.20;1.00
5286;DHT22;2665;53.112;7.358;2023-03-23T02:28:34;11.20;99.90
5286;DHT22;2665;53.112;7.358;2023-03-23T02:37:06;11.20;47.90
5286;DHT22;2665;53.112;7.358;2023-03-23T02:39:43;11.30;99.90
5286;DHT22;2665;53.112;7.358;2023-03-23T02:42:13;11.30;99.90
5286;DHT22;2665;53.112;7.358;2023-03-23T02:44:43;11.30;59.10
5286;DHT22;2665;53.112;7.358;2023-03-23T02:47:16;11.30;1.00
5286;DHT22;2665;53.112;7.358;2023-03-23T02:49:45;11.30;1.00
5286;DHT22;2665;53.112;7.358;2023-03-23T02:52:15;11.40;1.00
5286;DHT22;2665;53.112;7.358;2023-03-23T02:54:43;11.30;99.90
5286;DHT22;2665;53.112;7.358;2023-03-23T02:57:11;11.40;99.90
5286;DHT22;2665;53.112;7.358;2023-03-23T02:59:40;11.40;99.90
5286;DHT22;2665;53.112;7.358;2023-03-23T03:10:19;11.40;1.00
5286;DHT22;2665;53.112;7.358;2023-03-23T03:13:14;11.40;1.00
5286;DHT22;2665;53.112;7.358;2023-03-23T03:16:00;11.40;1.00
5286;DHT22;2665;53.112;7.358;2023-03-23T03:19:22;11.40;1.00
5286;DHT22;2665;53.112;7.358;2023-03-23T03:21:21;11.40;99.90
5286;DHT22;2665;53.112;7.358;2023-03-23T03:23:56;11.50;99.90
5286;DHT22;2665;53.112;7.358;2023-03-23T03:26:25;11.50;99.90
5286;DHT22;2665;53.112;7.358;2023-03-23T03:28:52;11.50;99.90
5286;DHT22;2665;53.112;7.358;2023-03-23T03:31:27;11.50;99.90
5286;DHT22;2665;53.112;7.358;2023-03-23T03:33:53;11.50;99.90
5286;DHT22;2665;53.112;7.358;2023-03-23T03:36:22;11.50;99.90
5286;DHT22;2665;53.112;7.358;2023-03-23T03:38:50;11.50;99.90
5286;DHT22;2665;53.112;7.358;2023-03-23T03:41:18;11.50;99.90
5286;DHT22;2665;53.112;7.358;2023-03-23T03:43:44;11.50;99.90
5286;DHT22;2665;53.112;7.358;2023-03-23T03:46:10;11.50;99.90
5286;DHT22;2665;53.112;7.358;2023-03-23T03:48:35;11.60;99.90
5286;DHT22;2665;53.112;7.358;2023-03-23T03:51:01;11.60;99.90
5286;DHT22;2665;53.112;7.358;2023-03-23T03:53:28;11.70;99.90
5286;DHT22;2665;53.112;7.358;2023-03-23T03:55:54;11.60;99.90
5286;DHT22;2665;53.112;7.358;2023-03-23T03:58:25;11.60;99.90
5286;DHT22;2665;53.112;7.358;2023-03-23T04:00:51;11.60;99.90
5286;DHT22;2665;53.112;7.358;2023-03-23T04:03:18;11.60;99.90
5286;DHT22;2665;53.112;7.358;2023-03-23T04:05:43;11.60;99.90
5286;DHT22;2665;53.112;7.358;2023-03-23T04:08:10;11.60;99.90
5286;DHT22;2665;53.112;7.358;2023-03-23T04:10:37;11.60;99.90
5286;DHT22;2665;53.112;7.358;2023-03-23T04:13:02;11.60;99.90
5286;DHT22;2665;53.112;7.358;2023-03-23T04:15:30;11.60;99.90
5286;DHT22;2665;53.112;7.358;2023-03-23T04:17:55;11.70;99.90
5286;DHT22;2665;53.112;7.358;2023-03-23T04:20:22;11.70;99.90
5286;DHT22;2665;53.112;7.358;2023-03-23T04:22:49;11.70;99.90
5286;DHT22;2665;53.112;7.358;2023-03-23T04:25:16;11.70;99.90
5286;DHT22;2665;53.112;7.358;2023-03-23T04:27:50;11.70;99.90
5286;DHT22;2665;53.112;7.358;2023-03-23T04:30:23;11.70;99.90
5286;DHT22;2665;53.112;7.358;2023-03-23T04:32:51;11.70;99.90
5286;DHT22;2665;53.112;7.358;2023-03-23T04:35:19;11.70;99.90
5286;DHT22;2665;53.112;7.358;2023-03-23T04:37:45;11.70;99.90
5286;DHT22;2665;53.112;7.358;2023-03-23T04:40:11;11.70;99.90
5286;DHT22;2665;53.112;7.358;2023-03-23T04:42:44;11.80;99.90
5286;DHT22;2665;53.112;7.358;2023-03-23T04:45:12;11.80;99.90
5286;DHT22;2665;53.112;7.358;2023-03-23T04:47:40;11.80;74.50
5286;DHT22;2665;53.112;7.358;2023-03-23T04:50:11;11.80;99.90
5286;DHT22;2665;53.112;7.358;2023-03-23T04:52:38;11.80;99.90
5286;DHT22;2665;53.112;7.358;2023-03-23T04:55:07;11.80;99.90
5286;DHT22;2665;53.112;7.358;2023-03-23T04:57:33;11.70;99.90
5286;DHT22;2665;53.112;7.358;2023-03-23T05:00:01;11.70;99.90
5286;DHT22;2665;53.112;7.358;2023-03-23T05:02:29;11.70;99.90
5286;DHT22;2665;53.112;7.358;2023-03-23T05:04:56;11.70;99.90
5286;DHT22;2665;53.112;7.358;2023-03-23T05:07:23;11.70;99.90
5286;DHT22;2665;53.112;7.358;2023-03-23T05:09:49;11.70;99.90
5286;DHT22;2665;53.112;7.358;2023-03-23T05:12:15;11.70;99.90
5286;DHT22;2665;53.112;7.358;2023-03-23T05:14:42;11.70;99.90
5286;DHT22;2665;53.112;7.358;2023-03-23T05:17:08;11.80;99.90
5286;DHT22;2665;53.112;7.358;2023-03-23T05:19:34;11.90;99.90
5286;DHT22;2665;53.112;7.358;2023-03-23T05:22:01;11.80;99.90
5286;DHT22;2665;53.112;7.358;2023-03-23T05:24:32;11.70;99.90
5286;DHT22;2665;53.112;7.358;2023-03-23T05:26:59;11.40;99.90
5286;DHT22;2665;53.112;7.358;2023-03-23T05:29:25;11.30;1.00
5286;DHT22;2665;53.112;7.358;2023-03-23T05:31:51;11.10;67.40
5286;DHT22;2665;53.112;7.358;2023-03-23T05:34:18;11.00;99.90
5286;DHT22;2665;53.112;7.358;2023-03-23T05:36:44;10.80;1.00
5286;DHT22;2665;53.112;7.358;2023-03-23T05:39:13;10.30;99.90
5286;DHT22;2665;53.112;7.358;2023-03-23T05:41:40;10.00;99.90
5286;DHT22;2665;53.112;7.358;2023-03-23T05:44:05;9.80;99.90
5286;DHT22;2665;53.112;7.358;2023-03-23T05:46:31;9.80;1.00
5286;DHT22;2665;53.112;7.358;2023-03-23T05:48:57;9.80;1.00
5286;DHT22;2665;53.112;7.358;2023-03-23T05:51:23;9.90;99.90
5286;DHT22;2665;53.112;7.358;2023-03-23T05:53:49;10.20;99.90
5286;DHT22;2665;53.112;7.358;2023-03-23T05:56:14;10.30;99.90
5286;DHT22;2665;53.112;7.358;2023-03-23T05:58:40;10.40;99.90
5286;DHT22;2665;53.112;7.358;2023-03-23T06:01:07;10.50;99.90
5286;DHT22;2665;53.112;7.358;2023-03-23T06:03:33;10.50;1.00
5286;DHT22;2665;53.112;7.358;2023-03-23T06:06:02;10.50;99.90
5286;DHT22;2665;53.112;7.358;2023-03-23T06:08:27;10.50;92.40
5286;DHT22;2665;53.112;7.358;2023-03-23T06:10:53;10.40;1.00
5286;DHT22;2665;53.112;7.358;2023-03-23T06:13:19;10.50;99.90
5286;DHT22;2665;53.112;7.358;2023-03-23T06:15:44;10.50;99.90
5286;DHT22;2665;53.112;7.358;2023-03-23T06:18:11;10.50;1.00
5286;DHT22;2665;53.112;7.358;2023-03-23T06:20:38;10.50;1.00
5286;DHT22;2665;53.112;7.358;2023-03-23T06:23:04;10.50;99.90
5286;DHT22;2665;53.112;7.358;2023-03-23T06:25:30;10.60;99.90
5286;DHT22;2665;53.112;7.358;2023-03-23T06:27:56;10.60;49.20
5286;DHT22;2665;53.112;7.358;2023-03-23T06:30:22;10.70;1.00
5286;DHT22;2665;53.112;7.358;2023-03-23T06:32:48;10.70;1.00
5286;DHT22;2665;53.112;7.358;2023-03-23T06:35:14;10.70;99.90
5286;DHT22;2665;53.112;7.358;2023-03-23T06:37:40;10.80;1.00
5286;DHT22;2665;53.112;7.358;2023-03-23T06:40:07;10.80;99.90
5286;DHT22;2665;53.112;7.358;2023-03-23T06:42:33;10.80;99.90
5286;DHT22;2665;53.112;7.358;2023-03-23T06:44:59;10.90;92.20
5286;DHT22;2665;53.112;7.358;2023-03-23T06:47:27;10.90;1.00
5286;DHT22;2665;53.112;7.358;2023-03-23T06:49:55;10.90;1.00
5286;DHT22;2665;53.112;7.358;2023-03-23T06:52:22;11.00;1.00
5286;DHT22;2665;53.112;7.358;2023-03-23T06:54:49;11.00;1.00
5286;DHT22;2665;53.112;7.358;2023-03-23T06:57:15;11.00;99.90
5286;DHT22;2665;53.112;7.358;2023-03-23T06:59:41;11.00;99.90
5286;DHT22;2665;53.112;7.358;2023-03-23T07:02:11;11.00;99.90
5286;DHT22;2665;53.112;7.358;2023-03-23T07:04:38;11.00;99.90
5286;DHT22;2665;53.112;7.358;2023-03-23T07:07:05;11.00;99.90
5286;DHT22;2665;53.112;7.358;2023-03-23T07:09:31;11.00;99.90
5286;DHT22;2665;53.112;7.358;2023-03-23T07:11:57;11.00;99.90
5286;DHT22;2665;53.112;7.358;2023-03-23T07:14:23;11.00;99.90
5286;DHT22;2665;53.112;7.358;2023-03-23T07:16:49;11.00;1.00
5286;DHT22;2665;53.112;7.358;2023-03-23T07:19:15;11.00;1.00
5286;DHT22;2665;53.112;7.358;2023-03-23T07:21:41;11.10;1.00
5286;DHT22;2665;53.112;7.358;2023-03-23T07:24:10;11.10;1.00
5286;DHT22;2665;53.112;7.358;2023-03-23T07:26:37;11.10;1.00
5286;DHT22;2665;53.112;7.358;2023-03-23T07:29:02;11.10;99.90
5286;DHT22;2665;53.112;7.358;2023-03-23T07:31:28;11.20;99.90
5286;DHT22;2665;53.112;7.358;2023-03-23T07:33:54;11.20;99.90
5286;DHT22;2665;53.112;7.358;2023-03-23T07:36:19;11.30;99.90
5286;DHT22;2665;53.112;7.358;2023-03-23T07:38:45;11.30;99.90
5286;DHT22;2665;53.112;7.358;2023-03-23T07:41:11;11.30;99.90
5286;DHT22;2665;53.112;7.358;2023-03-23T07:43:36;11.40;99.90
5286;DHT22;2665;53.112;7.358;2023-03-23T07:46:02;11.40;99.90
5286;DHT22;2665;53.112;7.358;2023-03-23T07:48:28;11.40;9.60
5286;DHT22;2665;53.112;7.358;2023-03-23T07:50:53;11.40;99.90
5286;DHT22;2665;53.112;7.358;2023-03-23T07:53:19;11.40;99.90
5286;DHT22;2665;53.112;7.358;2023-03-23T07:55:46;11.40;99.90
5286;DHT22;2665;53.112;7.358;2023-03-23T07:58:12;11.40;99.90
5286;DHT22;2665;53.112;7.358;2023-03-23T08:00:43;11.40;93.20
5286;DHT22;2665;53.112;7.358;2023-03-23T08:03:09;11.50;1.00
5286;DHT22;2665;53.112;7.358;2023-03-23T08:05:34;11.60;1.00
5286;DHT22;2665;53.112;7.358;2023-03-23T08:08:00;11.70;1.00
5286;DHT22;2665;53.112;7.358;2023-03-23T08:10:26;11.90;1.00
5286;DHT22;2665;53.112;7.358;2023-03-23T08:12:53;12.00;99.90
5286;DHT22;2665;53.112;7.358;2023-03-23T08:15:21;12.10;99.90
5286;DHT22;2665;53.112;7.358;2023-03-23T08:17:47;12.10;99.90
5286;DHT22;2665;53.112;7.358;2023-03-23T08:20:13;12.20;99.90
5286;DHT22;2665;53.112;7.358;2023-03-23T08:22:43;12.30;91.70
5286;DHT22;2665;53.112;7.358;2023-03-23T08:25:11;12.40;54.10
5286;DHT22;2665;53.112;7.358;2023-03-23T08:27:38;12.40;1.00
5286;DHT22;2665;53.112;7.358;2023-03-23T08:30:12;12.30;1.00
5286;DHT22;2665;53.112;7.358;2023-03-23T08:32:39;12.30;1.00
5286;DHT22;2665;53.112;7.358;2023-03-23T08:35:06;12.40;1.00
5286;DHT22;2665;53.112;7.358;2023-03-23T08:37:32;12.40;1.00
5286;DHT22;2665;53.112;7.358;2023-03-23T08:39:58;12.40;1.00
5286;DHT22;2665;53.112;7.358;2023-03-23T08:42:24;12.40;1.00
5286;DHT22;2665;53.112;7.358;2023-03-23T08:44:51;12.40;1.00
5286;DHT22;2665;53.112;7.358;2023-03-23T08:47:16;12.40;1.00
5286;DHT22;2665;53.112;7.358;2023-03-23T08:49:43;12.40;1.00
5286;DHT22;2665;53.112;7.358;2023-03-23T08:52:09;12.40;1.00
5286;DHT22;2665;53.112;7.358;2023-03-23T08:54:35;12.50;1.00
5286;DHT22;2665;53.112;7.358;2023-03-23T08:57:02;12.50;1.00
5286;DHT22;2665;53.112;7.358;2023-03-23T08:59:28;12.60;1.00
5286;DHT22;2665;53.112;7.358;2023-03-23T09:01:54;12.60;1.00
5286;DHT22;2665;53.112;7.358;2023-03-23T09:04:19;12.60;1.00
5286;DHT22;2665;53.112;7.358;2023-03-23T09:06:45;12.60;99.90
5286;DHT22;2665;53.112;7.358;2023-03-23T09:09:12;12.50;99.90
5286;DHT22;2665;53.112;7.358;2023-03-23T09:11:38;12.40;99.90
5286;DHT22;2665;53.112;7.358;2023-03-23T09:14:05;12.30;99.90
5286;DHT22;2665;53.112;7.358;2023-03-23T09:16:32;12.30;1.00
5286;DHT22;2665;53.112;7.358;2023-03-23T09:18:58;12.30;1.00
5286;DHT22;2665;53.112;7.358;2023-03-23T09:21:25;12.50;1.00
5286;DHT22;2665;53.112;7.358;2023-03-23T09:23:52;12.70;1.00
5286;DHT22;2665;53.112;7.358;2023-03-23T09:26:18;13.00;1.00
5286;DHT22;2665;53.112;7.358;2023-03-23T09:28:44;13.30;99.90
5286;DHT22;2665;53.112;7.358;2023-03-23T09:31:12;13.20;99.90
5286;DHT22;2665;53.112;7.358;2023-03-23T09:33:38;13.10;99.90
5286;DHT22;2665;53.112;7.358;2023-03-23T09:36:04;13.10;99.90
5286;DHT22;2665;53.112;7.358;2023-03-23T09:38:33;13.20;99.90
5286;DHT22;2665;53.112;7.358;2023-03-23T09:43:44;13.10;99.90
5286;DHT22;2665;53.112;7.358;2023-03-23T09:46:35;13.00;99.90
5286;DHT22;2665;53.112;7.358;2023-03-23T09:49:10;12.90;99.90
5286;DHT22;2665;53.112;7.358;2023-03-23T09:51:48;12.80;99.90
5286;DHT22;2665;53.112;7.358;2023-03-23T09:54:28;12.60;99.90
5286;DHT22;2665;53.112;7.358;2023-03-23T09:56:55;12.60;99.90
5286;DHT22;2665;53.112;7.358;2023-03-23T09:59:37;12.50;99.90
5286;DHT22;2665;53.112;7.358;2023-03-23T10:02:28;12.40;99.90
5286;DHT22;2665;53.112;7.358;2023-03-23T10:05:44;12.40;1.00
5286;DHT22;2665;53.112;7.358;2023-03-23T10:07:44;12.30;1.00
5286;DHT22;2665;53.112;7.358;2023-03-23T10:10:13;12.40;1.00
5286;DHT22;2665;53.112;7.358;2023-03-23T10:12:55;12.30;1.00
5286;DHT22;2665;53.112;7.358;2023-03-23T10:15:27;12.40;1.00
5286;DHT22;2665;53.112;7.358;2023-03-23T10:23:31;12.60;1.00
5286;DHT22;2665;53.112;7.358;2023-03-23T10:26:22;12.70;1.00
5286;DHT22;2665;53.112;7.358;2023-03-23T10:29:42;12.80;1.00
5286;DHT22;2665;53.112;7.358;2023-03-23T10:31:53;12.90;1.00
5286;DHT22;2665;53.112;7.358;2023-03-23T10:34:40;12.80;99.90
5286;DHT22;2665;53.112;7.358;2023-03-23T10:37:27;12.80;99.90
5286;DHT22;2665;53.112;7.358;2023-03-23T10:39:57;12.80;99.90
5286;DHT22;2665;53.112;7.358;2023-03-23T10:42:32;12.70;99.90
5286;DHT22;2665;53.112;7.358;2023-03-23T10:45:20;12.80;99.90
5286;DHT22;2665;53.112;7.358;2023-03-23T10:48:18;13.10;1.00
5286;DHT22;2665;53.112;7.358;2023-03-23T10:50:48;13.30;99.90
5286;DHT22;2665;53.112;7.358;2023-03-23T10:53:27;13.40;99.90
5286;DHT22;2665;53.112;7.358;2023-03-23T10:55:55;13.40;99.90
5286;DHT22;2665;53.112;7.358;2023-03-23T10:58:28;13.60;99.90
5286;DHT22;2665;53.112;7.358;2023-03-23T11:00:55;13.90;99.90
5286;DHT22;2665;53.112;7.358;2023-03-23T11:03:40;14.30;91.60
5286;DHT22;2665;53.112;7.358;2023-03-23T11:06:09;14.40;55.80
5286;DHT22;2665;53.112;7.358;2023-03-23T11:08:46;14.60;17.50
5286;DHT22;2665;53.112;7.358;2023-03-23T11:11:27;14.80;17.40
5286;DHT22;2665;53.112;7.358;2023-03-23T11:14:02;14.90;14.90
5286;DHT22;2665;53.112;7.358;2023-03-23T11:16:31;15.20;25.80
5286;DHT22;2665;53.112;7.358;2023-03-23T11:18:59;15.30;14.50
5286;DHT22;2665;53.112;7.358;2023-03-23T11:21:26;15.90;12.00
5286;DHT22;2665;53.112;7.358;2023-03-23T11:23:55;16.00;4.50
5286;DHT22;2665;53.112;7.358;2023-03-23T11:26:31;16.20;1.60
5286;DHT22;2665;53.112;7.358;2023-03-23T11:28:59;16.40;1.00
5286;DHT22;2665;53.112;7.358;2023-03-23T11:31:36;16.00;1.00
5286;DHT22;2665;53.112;7.358;2023-03-23T11:34:24;15.60;1.00
5286;DHT22;2665;53.112;7.358;2023-03-23T11:36:54;15.90;1.00
5286;DHT22;2665;53.112;7.358;2023-03-23T11:39:29;16.50;1.00
5286;DHT22;2665;53.112;7.358;2023-03-23T11:41:58;17.10;1.40
5286;DHT22;2665;53.112;7.358;2023-03-23T11:44:31;17.60;1.00
5286;DHT22;2665;53.112;7.358;2023-03-23T11:52:49;18.50;1.00
5286;DHT22;2665;53.112;7.358;2023-03-23T11:55:22;18.50;1.00
5286;DHT22;2665;53.112;7.358;2023-03-23T11:57:49;18.70;1.00
5286;DHT22;2665;53.112;7.358;2023-03-23T12:00:20;18.70;1.00
5286;DHT22;2665;53.112;7.358;2023-03-23T12:03:07;18.70;1.00
5286;DHT22;2665;53.112;7.358;2023-03-23T12:17:01;18.90;1.00
5286;DHT22;2665;53.112;7.358;2023-03-23T12:33:53;18.70;1.00
5286;DHT22;2665;53.112;7.358;2023-03-23T12:44:11;16.10;1.00
5286;DHT22;2665;53.112;7.358;2023-03-23T12:49:48;17.60;1.00
5286;DHT22;2665;53.112;7.358;2023-03-23T12:57:45;19.50;1.00
5286;DHT22;2665;53.112;7.358;2023-03-23T13:06:04;19.80;1.00
5286;DHT22;2665;53.112;7.358;2023-03-23T13:08:39;19.60;1.00
5286;DHT22;2665;53.112;7.358;2023-03-23T13:11:25;19.40;1.00
5286;DHT22;2665;53.112;7.358;2023-03-23T13:13:58;19.70;1.00
5286;DHT22;2665;53.112;7.358;2023-03-23T13:16:34;18.50;1.00
5286;DHT22;2665;53.112;7.358;2023-03-23T13:24:26;16.40;1.00
5286;DHT22;2665;53.112;7.358;2023-03-23T13:26:53;16.00;1.00
5286;DHT22;2665;53.112;7.358;2023-03-23T13:29:24;16.50;1.00
5286;DHT22;2665;53.112;7.358;2023-03-23T13:31:51;17.30;1.00
5286;DHT22;2665;53.112;7.358;2023-03-23T13:34:29;18.10;1.00
5286;DHT22;2665;53.112;7.358;2023-03-23T13:37:01;18.70;1.00
5286;DHT22;2665;53.112;7.358;2023-03-23T13:39:53;19.00;1.00
5286;DHT22;2665;53.112;7.358;2023-03-23T13:42:24;18.90;1.00
5286;DHT22;2665;53.112;7.358;2023-03-23T13:50:08;17.90;1.00
5286;DHT22;2665;53.112;7.358;2023-03-23T14:03:40;18.50;1.00
5286;DHT22;2665;53.112;7.358;2023-03-23T14:06:07;18.20;1.00
5286;DHT22;2665;53.112;7.358;2023-03-23T14:08:42;18.30;1.00
5286;DHT22;2665;53.112;7.358;2023-03-23T14:11:13;18.50;1.00
5286;DHT22;2665;53.112;7.358;2023-03-23T14:14:01;18.70;1.00
5286;DHT22;2665;53.112;7.358;2023-03-23T14:16:39;18.70;1.00
5286;DHT22;2665;53.112;7.358;2023-03-23T14:19:37;18.80;1.00
5286;DHT22;2665;53.112;7.358;2023-03-23T14:22:03;19.00;1.00
5286;DHT22;2665;53.112;7.358;2023-03-23T14:24:31;19.00;1.00
5286;DHT22;2665;53.112;7.358;2023-03-23T14:27:18;19.20;1.00
5286;DHT22;2665;53.112;7.358;2023-03-23T14:29:44;18.80;1.00
5286;DHT22;2665;53.112;7.358;2023-03-23T14:32:16;18.70;1.00
5286;DHT22;2665;53.112;7.358;2023-03-23T14:34:43;18.70;1.00
5286;DHT22;2665;53.112;7.358;2023-03-23T14:37:12;18.40;1.00
5286;DHT22;2665;53.112;7.358;2023-03-23T14:39:38;17.70;1.00
5286;DHT22;2665;53.112;7.358;2023-03-23T14:42:12;17.80;1.00
5286;DHT22;2665;53.112;7.358;2023-03-23T14:44:57;17.80;1.00
5286;DHT22;2665;53.112;7.358;2023-03-23T14:47:37;17.20;1.00
5286;DHT22;2665;53.112;7.358;2023-03-23T14:50:06;16.70;1.00
5286;DHT22;2665;53.112;7.358;2023-03-23T14:52:36;16.30;1.00
5286;DHT22;2665;53.112;7.358;2023-03-23T14:55:13;16.10;1.00
5286;DHT22;2665;53.112;7.358;2023-03-23T14:57:43;15.70;1.00
5286;DHT22;2665;53.112;7.358;2023-03-23T15:00:32;15.60;1.00
5286;DHT22;2665;53.112;7.358;2023-03-23T15:03:00;15.50;1.00
5286;DHT22;2665;53.112;7.358;2023-03-23T15:05:31;15.30;1.00
5286;DHT22;2665;53.112;7.358;2023-03-23T15:08:18;15.20;1.00
5286;DHT22;2665;53.112;7.358;2023-03-23T15:11:21;15.30;1.00
5286;DHT22;2665;53.112;7.358;2023-03-23T15:13:41;15.70;1.00
5286;DHT22;2665;53.112;7.358;2023-03-23T15:16:17;16.30;1.00
5286;DHT22;2665;53.112;7.358;2023-03-23T15:18:50;16.50;1.00
5286;DHT22;2665;53.112;7.358;2023-03-23T15:21:54;17.00;1.00
5286;DHT22;2665;53.112;7.358;2023-03-23T15:24:33;17.50;1.00
5286;DHT22;2665;53.112;7.358;2023-03-23T15:29:49;17.90;7.50
5286;DHT22;2665;53.112;7.358;2023-03-23T15:32:30;18.00;1.00
5286;DHT22;2665;53.112;7.358;2023-03-23T15:34:57;17.80;1.00
5286;DHT22;2665;53.112;7.358;2023-03-23T15:37:31;18.00;1.00
5286;DHT22;2665;53.112;7.358;2023-03-23T15:39:58;18.30;1.00
5286;DHT22;2665;53.112;7.358;2023-03-23T15:42:28;18.50;1.00
5286;DHT22;2665;53.112;7.358;2023-03-23T15:52:42;16.70;1.00
5286;DHT22;2665;53.112;7.358;2023-03-23T15:57:46;17.60;1.00
5286;DHT22;2665;53.112;7.358;2023-03-23T16:00:16;17.70;1.00
5286;DHT22;2665;53.112;7.358;2023-03-23T16:02:42;17.90;1.00
5286;DHT22;2665;53.112;7.358;2023-03-23T16:05:12;18.00;1.00
5286;DHT22;2665;53.112;7.358;2023-03-23T16:07:37;18.00;1.00
5286;DHT22;2665;53.112;7.358;2023-03-23T16:10:04;17.60;1.00
5286;DHT22;2665;53.112;7.358;2023-03-23T16:12:30;17.00;1.00
5286;DHT22;2665;53.112;7.358;2023-03-23T16:14:56;17.00;1.00
5286;DHT22;2665;53.112;7.358;2023-03-23T16:17:22;16.70;1.00
5286;DHT22;2665;53.112;7.358;2023-03-23T16:19:47;16.30;1.00
5286;DHT22;2665;53.112;7.358;2023-03-23T16:22:13;15.80;1.00
5286;DHT22;2665;53.112;7.358;2023-03-23T16:24:38;15.50;1.00
5286;DHT22;2665;53.112;7.358;2023-03-23T16:27:04;15.30;1.00
5286;DHT22;2665;53.112;7.358;2023-03-23T16:29:30;15.10;1.00
5286;DHT22;2665;53.112;7.358;2023-03-23T16:31:56;14.90;1.00
5286;DHT22;2665;53.112;7.358;2023-03-23T16:34:21;14.70;1.00
5286;DHT22;2665;53.112;7.358;2023-03-23T16:36:47;14.60;1.00
5286;DHT22;2665;53.112;7.358;2023-03-23T16:39:13;14.60;1.00
5286;DHT22;2665;53.112;7.358;2023-03-23T16:41:40;14.60;1.00
5286;DHT22;2665;53.112;7.358;2023-03-23T16:44:06;14.60;1.00
5286;DHT22;2665;53.112;7.358;2023-03-23T16:46:31;14.80;1.20
5286;DHT22;2665;53.112;7.358;2023-03-23T16:48:57;14.90;1.90
5286;DHT22;2665;53.112;7.358;2023-03-23T16:51:22;15.00;1.40
5286;DHT22;2665;53.112;7.358;2023-03-23T16:53:48;15.00;2.00
5286;DHT22;2665;53.112;7.358;2023-03-23T16:56:14;14.80;2.20
5286;DHT22;2665;53.112;7.358;2023-03-23T16:58:39;14.60;1.80
5286;DHT22;2665;53.112;7.358;2023-03-23T17:01:07;14.50;3.30
5286;DHT22;2665;53.112;7.358;2023-03-23T17:03:33;14.40;5.30
5286;DHT22;2665;53.112;7.358;2023-03-23T17:05:59;14.30;6.20
5286;DHT22;2665;53.112;7.358;2023-03-23T17:08:26;14.30;7.30
5286;DHT22;2665;53.112;7.358;2023-03-23T17:10:52;14.20;9.00
5286;DHT22;2665;53.112;7.358;2023-03-23T17:13:18;14.10;13.70
5286;DHT22;2665;53.112;7.358;2023-03-23T17:15:44;13.90;13.70
5286;DHT22;2665;53.112;7.358;2023-03-23T17:18:10;13.80;14.80
5286;DHT22;2665;53.112;7.358;2023-03-23T17:20:36;13.70;16.40
5286;DHT22;2665;53.112;7.358;2023-03-23T17:23:02;13.50;20.80
5286;DHT22;2665;53.112;7.358;2023-03-23T17:25:28;13.40;25.50
5286;DHT22;2665;53.112;7.358;2023-03-23T17:27:58;13.30;28.70
5286;DHT22;2665;53.112;7.358;2023-03-23T17:30:23;13.20;33.00
5286;DHT22;2665;53.112;7.358;2023-03-23T17:32:49;13.20;32.40
5286;DHT22;2665;53.112;7.358;2023-03-23T17:35:15;13.10;30.30
5286;DHT22;2665;53.112;7.358;2023-03-23T17:37:41;13.10;36.70
5286;DHT22;2665;53.112;7.358;2023-03-23T17:40:08;13.00;42.10
5286;DHT22;2665;53.112;7.358;2023-03-23T17:42:36;12.90;48.30
5286;DHT22;2665;53.112;7.358;2023-03-23T17:45:03;12.90;54.90
5286;DHT22;2665;53.112;7.358;2023-03-23T17:47:29;12.80;62.80
5286;DHT22;2665;53.112;7.358;2023-03-23T17:49:54;12.80;72.90
5286;DHT22;2665;53.112;7.358;2023-03-23T17:52:21;12.80;77.10
5286;DHT22;2665;53.112;7.358;2023-03-23T17:54:47;12.70;85.10
5286;DHT22;2665;53.112;7.358;2023-03-23T17:57:12;12.70;89.50
5286;DHT22;2665;53.112;7.358;2023-03-23T17:59:38;12.60;94.50
5286;DHT22;2665;53.112;7.358;2023-03-23T18:02:04;12.60;99.50
5286;DHT22;2665;53.112;7.358;2023-03-23T18:04:30;12.50;99.90
5286;DHT22;2665;53.112;7.358;2023-03-23T18:06:56;12.50;99.90
5286;DHT22;2665;53.112;7.358;2023-03-23T18:09:23;12.40;99.90
5286;DHT22;2665;53.112;7.358;2023-03-23T18:11:49;12.40;99.90
5286;DHT22;2665;53.112;7.358;2023-03-23T18:14:15;12.40;99.90
5286;DHT22;2665;53.112;7.358;2023-03-23T18:16:40;12.30;99.90
5286;DHT22;2665;53.112;7.358;2023-03-23T18:19:06;12.30;99.90
5286;DHT22;2665;53.112;7.358;2023-03-23T18:21:32;12.20;99.90
5286;DHT22;2665;53.112;7.358;2023-03-23T18:23:57;12.20;99.90
5286;DHT22;2665;53.112;7.358;2023-03-23T18:26:23;12.20;99.90